Time;durP1;ratioP1;P1;durP2;ratioP2;P2;SDS_P1;SDS_P2;PMS_P1;PMS_P2;Temp;Humidity;BMP_temperature;BMP_pressure;BME280_temperature;BME280_humidity;BME280_pressure;Samples;Min_cycle;Max_cycle;Signal;HPM_P1;HPM_P2
2022/06/20 00:00:32;;;;;;;6.60;2.25;;;;;;;14.36;77.18;100752.70;1671179;85;21125;-84
2022/06/20 00:03:01;;;;;;;6.25;1.82;;;;;;;14.37;77.19;100752.69;1689932;84;21616;-84
2022/06/20 00:05:30;;;;;;;6.08;2.17;;;;;;;14.41;77.32;100754.06;1626488;86;22578;-85
2022/06/20 00:08:00;;;;;;;6.83;2.33;;;;;;;14.43;77.17;100761.58;1658122;85;21072;-85
2022/06/20 00:10:30;;;;;;;8.03;2.62;;;;;;;14.43;77.22;100766.42;1657519;85;21640;-86
2022/06/20 00:12:58;;;;;;;7.20;2.75;;;;;;;14.44;77.30;100768.66;1658889;85;21087;-86
2022/06/20 00:15:34;;;;;;;8.58;2.90;;;;;;;14.39;77.34;100779.20;1652805;85;21083;-88
2022/06/20 00:18:04;;;;;;;10.18;3.20;;;;;;;14.45;77.45;100782.34;1639776;86;21773;-87
2022/06/20 00:20:31;;;;;;;5.65;2.92;;;;;;;14.47;77.36;100781.91;1650833;86;21634;-87
2022/06/20 00:22:59;;;;;;;8.20;3.70;;;;;;;14.45;77.42;100785.90;1645289;85;21107;-84
2022/06/20 00:25:30;;;;;;;11.10;3.98;;;;;;;14.44;77.21;100780.58;1627815;87;21096;-84
2022/06/20 00:27:56;;;;;;;5.92;3.80;;;;;;;14.44;77.34;100781.46;1633031;84;21099;-86
2022/06/20 00:30:23;;;;;;;13.95;4.65;;;;;;;14.45;77.26;100782.34;1635722;86;22477;-88
2022/06/20 00:32:50;;;;;;;8.93;3.33;;;;;;;14.43;77.27;100779.67;1636734;86;21367;-83
2022/06/20 00:35:17;;;;;;;10.93;4.15;;;;;;;14.44;77.25;100769.55;1650025;86;21063;-86
2022/06/20 00:37:44;;;;;;;13.32;3.98;;;;;;;14.45;77.23;100782.34;1633866;87;21123;-85
2022/06/20 00:40:37;;;;;;;7.40;3.65;;;;;;;14.45;77.19;100774.39;1634998;86;21146;-85
2022/06/20 00:43:04;;;;;;;8.65;3.40;;;;;;;14.42;77.22;100763.34;1620923;87;21782;-88
2022/06/20 00:45:35;;;;;;;10.08;4.12;;;;;;;14.45;77.16;100780.60;1603093;88;21055;-84
2022/06/20 00:48:22;;;;;;;8.78;3.58;;;;;;;14.42;77.09;100779.23;1641314;87;21105;-84
2022/06/20 00:50:54;;;;;;;5.72;2.72;;;;;;;14.41;77.20;100791.13;1647194;87;21467;-86
2022/06/20 00:53:49;;;;;;;8.48;3.15;;;;;;;14.39;77.25;100788.47;1646910;87;21075;-84
2022/06/20 00:56:27;;;;;;;8.43;2.87;;;;;;;14.33;77.25;100790.61;1629639;86;21836;-87
2022/06/20 00:59:04;;;;;;;6.67;2.52;;;;;;;14.33;77.28;100792.38;1629132;87;21148;-87
2022/06/20 01:01:39;;;;;;;7.95;2.70;;;;;;;14.34;77.34;100787.52;1623257;87;21095;-86
2022/06/20 01:04:14;;;;;;;5.12;2.30;;;;;;;14.39;77.43;100798.61;1621759;87;21131;-86
2022/06/20 01:06:49;;;;;;;5.10;2.77;;;;;;;14.43;77.40;100799.53;1629777;87;21098;-85
2022/06/20 01:09:16;;;;;;;6.30;2.67;;;;;;;14.47;77.46;100806.66;1618321;87;21789;-84
2022/06/20 01:11:47;;;;;;;5.05;2.60;;;;;;;14.50;77.37;100800.05;1613150;86;21163;-85
2022/06/20 01:14:38;;;;;;;5.00;2.60;;;;;;;14.54;77.40;100790.38;1618321;87;21608;-86
2022/06/20 01:17:11;;;;;;;5.90;2.90;;;;;;;14.57;77.37;100791.77;1618606;87;21199;-86
2022/06/20 01:20:00;;;;;;;5.87;2.62;;;;;;;14.60;77.32;100790.45;1608641;88;21073;-83
2022/06/20 01:22:36;;;;;;;5.83;2.72;;;;;;;14.58;77.16;100787.82;1667961;84;22605;-87
2022/06/20 01:25:43;;;;;;;5.85;2.65;;;;;;;14.57;77.10;100797.07;1691219;84;21542;-85
2022/06/20 01:28:13;;;;;;;7.15;2.65;;;;;;;14.56;77.22;100797.48;1689808;83;21090;-85
2022/06/20 01:30:43;;;;;;;4.22;2.40;;;;;;;14.61;77.28;100801.97;1708160;82;21071;-86
2022/06/20 01:33:11;;;;;;;7.75;2.15;;;;;;;14.63;77.18;100789.62;1722874;82;21609;-83
2022/06/20 01:38:25;;;;;;;6.40;2.37;;;;;;;14.65;77.07;100786.09;1739188;82;21042;-85
2022/06/20 01:43:37;;;;;;;4.42;2.42;;;;;;;14.64;76.87;100770.18;1709779;82;21578;-86
2022/06/20 01:46:09;;;;;;;9.70;2.62;;;;;;;14.59;76.78;100762.20;1730191;82;21138;-85
2022/06/20 01:48:40;;;;;;;6.20;2.27;;;;;;;14.53;76.95;100756.39;1710624;82;21791;-84
2022/06/20 01:51:16;;;;;;;8.68;3.55;;;;;;;14.53;76.96;100751.09;1704694;82;21115;-83
2022/06/20 01:53:43;;;;;;;7.65;2.60;;;;;;;14.52;77.03;100750.62;1678830;84;21083;-85
2022/06/20 01:56:10;;;;;;;5.45;1.92;;;;;;;14.47;77.10;100731.59;1713399;82;21046;-85
2022/06/20 01:58:40;;;;;;;7.30;2.50;;;;;;;14.55;77.15;100740.52;1731606;82;21167;-82
2022/06/20 02:01:07;;;;;;;6.78;2.60;;;;;;;14.51;76.94;100738.72;1715288;82;22627;-85
2022/06/20 02:03:36;;;;;;;3.20;2.27;;;;;;;14.49;77.05;100745.73;1734957;82;21075;-88
2022/06/20 02:06:03;;;;;;;7.97;2.67;;;;;;;14.46;77.00;100743.95;1688425;82;21126;-85
2022/06/20 02:08:30;;;;;;;6.85;2.37;;;;;;;14.47;77.04;100750.13;1726971;82;21631;-87
2022/06/20 02:11:08;;;;;;;6.62;2.40;;;;;;;14.44;76.94;100748.36;1736725;82;21163;-86
2022/06/20 02:13:39;;;;;;;6.25;2.15;;;;;;;14.41;76.91;100754.06;1732013;82;22622;-86
2022/06/20 02:16:08;;;;;;;4.17;1.90;;;;;;;14.34;76.90;100763.27;1706993;83;21532;-83
2022/06/20 02:18:38;;;;;;;3.87;2.00;;;;;;;14.37;77.10;100773.00;1715910;82;21070;-83
2022/06/20 02:21:08;;;;;;;7.22;2.00;;;;;;;14.38;77.16;100768.17;1726534;82;21073;-87
2022/06/20 02:23:38;;;;;;;5.47;2.17;;;;;;;14.43;77.04;100771.73;1720791;82;21576;-84
2022/06/20 02:26:05;;;;;;;5.03;2.00;;;;;;;14.42;76.92;100787.18;1661969;83;21969;-83
2022/06/20 02:28:43;;;;;;;5.50;2.00;;;;;;;14.44;77.04;100796.47;1731264;82;21105;-84
2022/06/20 02:31:10;;;;;;;4.22;1.92;;;;;;;14.48;76.92;100791.65;1713627;83;21551;-83
2022/06/20 02:33:37;;;;;;;3.22;1.67;;;;;;;14.51;76.83;100790.37;1713992;82;21139;-84
2022/06/20 02:36:05;;;;;;;3.60;1.62;;;;;;;14.54;76.78;100795.22;1734437;82;21070;-88
2022/06/20 02:38:33;;;;;;;3.12;1.60;;;;;;;14.56;76.63;100800.55;1725186;82;21771;-84
2022/06/20 02:41:00;;;;;;;5.22;1.80;;;;;;;14.60;76.60;100793.55;1745109;82;21082;-84
2022/06/20 02:43:31;;;;;;;4.08;1.55;;;;;;;14.64;76.54;100786.98;1716705;82;21074;-87
2022/06/20 02:45:58;;;;;;;2.98;1.80;;;;;;;14.65;76.38;100773.30;1715466;83;21111;-84
2022/06/20 02:48:28;;;;;;;2.92;1.27;;;;;;;14.64;76.22;100779.45;1743369;82;21114;-85
2022/06/20 02:50:57;;;;;;;5.33;1.40;;;;;;;14.64;76.20;100794.94;1702911;83;21604;-84
2022/06/20 02:53:40;;;;;;;3.15;1.35;;;;;;;14.65;76.01;100801.11;1706450;81;21088;-88
2022/06/20 02:56:09;;;;;;;2.67;1.20;;;;;;;14.60;76.03;100803.70;1732936;82;21079;-84
2022/06/20 02:58:38;;;;;;;5.80;1.52;;;;;;;14.52;76.02;100774.91;1744953;82;21593;-83
2022/06/20 03:01:15;;;;;;;2.83;1.42;;;;;;;14.61;75.90;100796.66;1728903;82;21700;-83
2022/06/20 03:03:46;;;;;;;1.98;1.22;;;;;;;14.59;75.97;100791.34;1715451;82;23030;-86
2022/06/20 03:06:21;;;;;;;2.87;1.40;;;;;;;14.62;75.91;100800.66;1664133;85;21369;-85
2022/06/20 03:08:47;;;;;;;2.08;1.10;;;;;;;14.64;75.72;100800.23;1667414;85;21616;-86
2022/06/20 03:11:14;;;;;;;2.35;1.40;;;;;;;14.59;75.62;100800.62;1646568;85;21036;-86
2022/06/20 03:13:41;;;;;;;6.62;1.70;;;;;;;14.54;75.72;100812.44;1671345;84;21059;-86
2022/06/20 03:16:08;;;;;;;3.85;1.65;;;;;;;14.51;75.69;100818.17;1640504;86;21887;-84
2022/06/20 03:18:39;;;;;;;4.62;1.30;;;;;;;14.49;75.77;100821.22;1676552;85;21036;-84
2022/06/20 03:21:05;;;;;;;4.35;1.55;;;;;;;14.50;75.67;100822.56;1685614;84;21153;-85
2022/06/20 03:23:33;;;;;;;2.87;1.30;;;;;;;14.52;75.68;100827.88;1690525;84;21113;-85
2022/06/20 03:26:03;;;;;;;4.15;1.10;;;;;;;14.57;75.66;100827.09;1658595;85;21758;-85
2022/06/20 03:28:31;;;;;;;2.60;1.52;;;;;;;14.57;75.42;100815.17;1681031;85;21779;-89
2022/06/20 03:30:59;;;;;;;4.95;2.45;;;;;;;14.58;75.38;100822.67;1717833;82;21094;-88
2022/06/20 03:33:26;;;;;;;3.45;1.70;;;;;;;14.57;75.29;100820.47;1730612;82;21111;-87
2022/06/20 03:36:15;;;;;;;4.45;1.45;;;;;;;14.56;75.19;100814.70;1736288;82;21150;-88
2022/06/20 03:38:43;;;;;;;3.60;1.47;;;;;;;14.58;75.12;100804.13;1711743;82;21078;-86
2022/06/20 03:41:10;;;;;;;3.90;1.42;;;;;;;14.62;75.12;100782.53;1729719;82;22618;-83
2022/06/20 03:43:37;;;;;;;2.80;1.12;;;;;;;14.63;75.19;100789.17;1722718;82;21598;-86
2022/06/20 03:46:18;;;;;;;3.55;1.22;;;;;;;14.68;75.17;100793.20;1695237;82;21126;-83
2022/06/20 03:48:55;;;;;;;1.87;1.47;;;;;;;14.73;75.00;100795.43;1667935;84;21071;-83
2022/06/20 03:51:26;;;;;;;3.08;1.40;;;;;;;14.73;74.86;100801.64;1649766;85;21116;-82
2022/06/20 03:54:34;;;;;;;4.90;1.70;;;;;;;14.73;75.03;100801.64;1666211;85;21708;-85
2022/06/20 03:57:09;;;;;;;4.47;2.08;;;;;;;14.72;74.76;100818.84;1640097;85;21100;-83
2022/06/20 03:59:46;;;;;;;4.45;2.10;;;;;;;14.74;74.99;100847.56;1674650;83;21170;-88
2022/06/20 04:02:33;;;;;;;3.85;1.72;;;;;;;14.81;74.96;100856.03;1727546;82;21023;-83
2022/06/20 04:05:19;;;;;;;6.33;1.67;;;;;;;14.86;74.99;100838.38;1671548;85;21077;-87
2022/06/20 04:08:06;;;;;;;6.10;1.90;;;;;;;14.97;75.05;100830.09;1683147;83;22423;-83
2022/06/20 04:11:00;;;;;;;4.40;1.85;;;;;;;15.08;75.12;100828.86;1683356;83;21043;-86
2022/06/20 04:13:40;;;;;;;5.40;2.00;;;;;;;15.21;74.98;100823.66;1734855;82;21621;-83
2022/06/20 04:16:19;;;;;;;8.95;2.20;;;;;;;15.25;74.73;100822.34;1715705;82;21069;-88
2022/06/20 04:19:13;;;;;;;4.22;1.75;;;;;;;15.28;74.36;100804.27;1727055;82;21074;-88
2022/06/20 04:21:59;;;;;;;5.80;1.75;;;;;;;15.29;74.32;100796.30;1709795;82;22424;-87
2022/06/20 04:24:45;;;;;;;6.37;2.00;;;;;;;15.34;74.23;100798.99;1689413;81;28948;-89
2022/06/20 04:27:33;;;;;;;6.60;2.33;;;;;;;15.40;74.06;100816.70;1737483;81;21551;-92
2022/06/20 04:31:01;;;;;;;3.95;2.27;;;;;;;15.35;73.83;100830.84;1735453;82;22185;-87
2022/06/20 04:33:36;;;;;;;5.03;1.95;;;;;;;15.39;73.49;100866.64;1677872;85;21038;-89
2022/06/20 04:36:42;;;;;;;5.72;1.90;;;;;;;15.24;73.38;100854.16;1699025;84;21288;-85
2022/06/20 04:39:22;;;;;;;4.75;1.95;;;;;;;15.18;73.37;100861.63;1677211;84;21082;-88
2022/06/20 04:42:02;;;;;;;4.72;2.72;;;;;;;15.10;73.33;100851.41;1701042;84;21051;-88
2022/06/20 04:45:02;;;;;;;4.92;2.33;;;;;;;15.13;73.49;100852.77;1698753;82;21106;-86
2022/06/20 04:48:25;;;;;;;5.03;1.60;;;;;;;15.10;73.28;100866.87;1703118;83;21044;-90
2022/06/20 04:51:03;;;;;;;4.15;2.00;;;;;;;15.12;73.37;100839.05;1677173;84;22671;-88
2022/06/20 04:53:33;;;;;;;4.83;2.67;;;;;;;15.16;73.30;100835.12;1677374;84;21862;-90
2022/06/20 04:56:04;;;;;;;4.47;1.60;;;;;;;15.22;73.16;100821.02;1667937;85;21088;-88
2022/06/20 04:58:49;;;;;;;3.98;1.72;;;;;;;15.25;73.04;100827.66;1675315;85;21050;-87
2022/06/20 05:01:18;;;;;;;9.20;1.77;;;;;;;15.27;72.92;100824.57;1694375;83;21068;-87
2022/06/20 05:03:49;;;;;;;5.80;1.75;;;;;;;15.35;73.00;100812.69;1679912;84;22578;-87
2022/06/20 05:06:27;;;;;;;3.42;2.05;;;;;;;15.42;72.94;100821.14;1670306;85;21098;-88
2022/06/20 05:09:10;;;;;;;2.35;1.50;;;;;;;15.46;72.68;100839.28;1667223;84;21118;-86
2022/06/20 05:11:50;;;;;;;5.12;1.98;;;;;;;15.46;72.52;100824.25;1703616;84;21063;-87
2022/06/20 05:14:58;;;;;;;2.85;1.70;;;;;;;15.42;72.32;100823.79;1687019;84;21040;-88
2022/06/20 05:17:28;;;;;;;2.00;1.50;;;;;;;15.43;72.39;100805.69;1681850;83;21680;-90
2022/06/20 05:20:01;;;;;;;4.25;1.35;;;;;;;15.44;72.36;100778.27;1644566;86;21125;-89
2022/06/20 05:22:33;;;;;;;2.90;1.35;;;;;;;15.48;72.34;100799.94;1636361;87;21095;-84
2022/06/20 05:25:08;;;;;;;4.22;1.72;;;;;;;15.51;71.93;100809.70;1639858;86;21092;-88
2022/06/20 05:27:52;;;;;;;4.55;2.02;;;;;;;15.50;71.69;100811.89;1642226;86;21095;-85
2022/06/20 05:30:21;;;;;;;4.22;1.80;;;;;;;15.46;71.44;100807.45;1683055;84;22025;-84
2022/06/20 05:33:00;;;;;;;4.33;1.60;;;;;;;15.42;71.40;100789.75;1693213;83;21286;-89
2022/06/20 05:35:36;;;;;;;7.00;1.50;;;;;;;15.48;71.38;100772.09;1695037;83;21076;-86
2022/06/20 05:38:14;;;;;;;4.75;2.40;;;;;;;15.64;71.39;100773.52;1681099;84;21569;-85
2022/06/20 05:40:47;;;;;;;3.90;1.57;;;;;;;15.81;71.13;100774.95;1674221;85;21090;-90
2022/06/20 05:43:21;;;;;;;6.43;1.80;;;;;;;15.91;70.60;100770.10;1664175;84;21788;-85
2022/06/20 05:45:53;;;;;;;3.62;1.20;;;;;;;15.84;69.93;100766.55;1686041;84;21072;-85
2022/06/20 05:48:22;;;;;;;4.08;1.20;;;;;;;15.72;69.55;100752.75;1700065;82;21086;-85
2022/06/20 05:51:02;;;;;;;4.42;1.50;;;;;;;15.74;69.57;100750.14;1690983;84;21576;-90
2022/06/20 05:53:50;;;;;;;5.35;1.32;;;;;;;15.87;69.75;100756.38;1711027;83;21627;-91
2022/06/20 05:56:29;;;;;;;8.35;1.70;;;;;;;15.94;69.34;100748.89;1710666;83;21804;-91
2022/06/20 05:58:56;;;;;;;5.72;1.70;;;;;;;16.02;69.34;100748.45;1687427;83;21095;-85
2022/06/20 06:01:31;;;;;;;8.60;4.50;;;;;;;16.10;68.98;100753.78;1628326;87;21656;-91
2022/06/20 06:04:25;;;;;;;6.25;2.00;;;;;;;16.19;68.90;100753.80;1648863;85;21143;-85
2022/06/20 06:06:56;;;;;;;6.53;1.85;;;;;;;16.37;68.79;100750.72;1657747;85;21122;-90
2022/06/20 06:09:27;;;;;;;4.42;1.90;;;;;;;16.49;67.81;100759.59;1644062;84;21772;-85
2022/06/20 06:11:58;;;;;;;6.55;1.87;;;;;;;16.50;67.75;100769.80;1669366;85;21593;-85
2022/06/20 06:14:48;;;;;;;9.38;2.77;;;;;;;16.41;67.28;100761.38;1703642;84;21585;-85
2022/06/20 06:17:23;;;;;;;7.95;2.33;;;;;;;16.38;67.03;100742.77;1700523;82;21087;-90
2022/06/20 06:19:54;;;;;;;6.75;2.15;;;;;;;16.53;67.16;100740.56;1698767;83;21154;-85
2022/06/20 06:22:38;;;;;;;8.95;2.77;;;;;;;16.73;66.56;100739.24;1684052;84;22590;-90
2022/06/20 06:25:33;;;;;;;9.13;2.67;;;;;;;16.88;66.15;100752.55;1684987;82;21085;-90
2022/06/20 06:28:05;;;;;;;5.83;2.47;;;;;;;16.88;65.65;100755.66;1701998;84;21091;-90
2022/06/20 06:30:43;;;;;;;8.20;2.27;;;;;;;16.97;65.74;100760.97;1688692;82;21093;-85
2022/06/20 06:33:35;;;;;;;6.50;1.85;;;;;;;16.92;64.99;100768.06;1704217;82;21059;-84
2022/06/20 06:36:19;;;;;;;9.58;1.85;;;;;;;16.89;65.22;100766.72;1735190;82;21810;-84
2022/06/20 06:39:06;;;;;;;8.83;2.30;;;;;;;16.96;65.47;100759.19;1710242;82;21876;-86
2022/06/20 06:41:37;;;;;;;5.92;1.85;;;;;;;16.90;64.87;100768.51;1653018;82;21691;-85
2022/06/20 06:44:23;;;;;;;6.90;2.33;;;;;;;16.80;64.95;100774.25;1718794;83;21129;-90
2022/06/20 06:46:52;;;;;;;7.00;1.95;;;;;;;16.75;64.73;100772.02;1653568;85;21076;-86
2022/06/20 06:49:24;;;;;;;6.75;2.08;;;;;;;16.71;64.49;100754.30;1686418;84;22683;-92
2022/06/20 06:52:16;;;;;;;7.83;2.05;;;;;;;16.70;64.69;100750.77;1681037;84;21067;-85
2022/06/20 06:54:58;;;;;;;8.25;2.17;;;;;;;16.78;64.53;100744.12;1696066;84;21060;-90
2022/06/20 06:57:43;;;;;;;9.95;2.42;;;;;;;16.98;64.99;100731.27;1659090;85;21314;-84
2022/06/20 07:00:23;;;;;;;25.37;3.95;;;;;;;17.15;64.44;100741.42;1731214;82;21091;-89
2022/06/20 07:03:00;;;;;;;9.68;3.75;;;;;;;17.21;64.35;100743.18;1714856;82;22669;-85
2022/06/20 07:05:52;;;;;;;13.28;3.25;;;;;;;17.24;63.72;100752.05;1715470;82;21060;-90
2022/06/20 07:08:23;;;;;;;9.03;2.58;;;;;;;17.23;63.73;100752.95;1729597;82;21122;-90
2022/06/20 07:11:07;;;;;;;10.20;3.05;;;;;;;17.19;63.40;100756.52;1719395;82;21101;-91
2022/06/20 07:14:00;;;;;;;8.65;3.02;;;;;;;17.08;63.26;100764.95;1715290;82;21122;-90
2022/06/20 07:16:38;;;;;;;8.70;2.05;;;;;;;17.01;63.31;100779.14;1726666;82;21771;-90
2022/06/20 07:19:06;;;;;;;8.83;2.10;;;;;;;16.92;63.25;100769.39;1682253;83;21103;-85
2022/06/20 07:21:33;;;;;;;7.62;2.17;;;;;;;16.88;63.39;100764.97;1669602;85;21076;-84
2022/06/20 07:24:07;;;;;;;8.50;2.85;;;;;;;16.99;63.36;100750.34;1735100;82;21066;-90
2022/06/20 07:26:37;;;;;;;;;;;;;;;17.20;63.36;100738.77;1722774;82;21116;-92
2022/06/20 07:29:07;;;;;;;8.05;2.40;;;;;;;17.49;62.99;100749.30;1738767;82;21803;-92
2022/06/20 07:31:47;;;;;;;6.60;2.42;;;;;;;17.69;62.72;100738.14;1724203;82;21623;-86
2022/06/20 07:34:33;;;;;;;7.95;2.77;;;;;;;18.01;62.21;100757.09;1710119;82;21102;-87
2022/06/20 07:37:14;;;;;;;13.00;7.40;;;;;;;18.27;62.12;100750.73;1689731;83;21066;-86
2022/06/20 07:39:56;;;;;;;8.65;2.47;;;;;;;18.73;62.16;100734.83;1714454;83;21063;-87
2022/06/20 07:42:37;;;;;;;6.25;2.08;;;;;;;19.29;61.57;100738.73;1726236;82;22590;-93
2022/06/20 07:45:15;;;;;;;7.85;2.05;;;;;;;19.69;60.73;100747.63;1732753;82;21074;-87
2022/06/20 07:47:53;;;;;;;8.78;4.08;;;;;;;19.84;60.13;100762.61;1709981;82;21086;-87
2022/06/20 07:50:32;;;;;;;7.47;2.55;;;;;;;19.67;59.44;100759.22;1666478;82;21095;-87
2022/06/20 07:53:16;;;;;;;5.47;2.35;;;;;;;19.42;59.21;100747.04;1650114;85;21155;-91
2022/06/20 07:55:51;;;;;;;10.08;5.08;;;;;;;19.40;59.46;100766.20;1639264;86;21841;-91
2022/06/20 07:58:31;;;;;;;10.80;4.28;;;;;;;19.33;59.24;100775.63;1712729;82;21083;-91
2022/06/20 08:00:58;;;;;;;13.55;5.60;;;;;;;19.26;58.92;100775.25;1736609;82;21086;-91
2022/06/20 08:03:30;;;;;;;6.97;2.90;;;;;;;19.00;58.61;100794.62;1713224;82;21106;-85
2022/06/20 08:06:13;;;;;;;15.58;8.73;;;;;;;18.80;58.51;100804.55;1718376;82;21051;-91
2022/06/20 08:08:53;;;;;;;14.85;5.25;;;;;;;18.61;58.48;100814.02;1724210;82;21786;-84
2022/06/20 08:11:40;;;;;;;15.95;5.33;;;;;;;18.40;58.76;100824.38;1652461;86;21625;-84
2022/06/20 08:14:44;;;;;;;30.30;17.23;;;;;;;18.26;58.44;100823.55;1718088;82;21550;-91
2022/06/20 08:17:24;;;;;;;11.08;5.17;;;;;;;18.08;58.43;100806.36;1738234;82;21154;-90
2022/06/20 08:19:51;;;;;;;14.55;5.40;;;;;;;17.94;58.63;100811.28;1734893;82;21082;-90
2022/06/20 08:22:40;;;;;;;16.77;6.42;;;;;;;17.92;58.65;100815.73;1710638;83;21758;-85
2022/06/20 08:25:18;;;;;;;9.25;3.98;;;;;;;17.85;58.48;100810.02;1728344;82;21062;-85
2022/06/20 08:28:04;;;;;;;9.05;5.10;;;;;;;17.76;58.51;100818.88;1735569;82;21853;-84
2022/06/20 08:30:39;;;;;;;9.93;3.72;;;;;;;17.57;58.59;100827.37;1715835;82;21066;-90
2022/06/20 08:33:11;;;;;;;11.20;3.58;;;;;;;17.52;59.00;100831.81;1733798;81;21125;-90
2022/06/20 08:35:49;;;;;;;12.82;4.70;;;;;;;17.50;58.86;100822.95;1722571;82;21907;-84
2022/06/20 08:38:36;;;;;;;42.43;12.73;;;;;;;17.52;59.10;100826.48;1717132;82;21481;-91
2022/06/20 08:41:29;;;;;;;20.25;7.03;;;;;;;17.60;59.37;100835.33;1716332;82;21561;-90
2022/06/20 08:44:49;;;;;;;8.20;3.83;;;;;;;17.69;59.50;100831.77;1710360;82;21054;-90
2022/06/20 08:47:30;;;;;;;8.30;2.90;;;;;;;17.78;59.60;100828.20;1705873;83;21079;-85
2022/06/20 08:50:18;;;;;;;6.85;2.40;;;;;;;17.96;59.76;100860.13;1731812;82;21785;-84
2022/06/20 08:52:53;;;;;;;6.62;2.60;;;;;;;18.05;59.73;100880.03;1735189;82;21094;-85
2022/06/20 08:55:51;;;;;;;9.18;2.60;;;;;;;18.15;59.79;100881.34;1730483;82;21051;-91
2022/06/20 08:58:32;;;;;;;7.47;2.12;;;;;;;18.18;59.51;100895.98;1712906;82;21067;-85
2022/06/20 09:01:35;;;;;;;6.33;1.90;;;;;;;18.13;59.75;100913.34;1722165;82;21068;-85
2022/06/20 09:04:14;;;;;;;8.23;2.35;;;;;;;18.12;59.92;100918.21;1727174;82;21888;-90
2022/06/20 09:07:10;;;;;;;9.78;2.52;;;;;;;18.08;59.83;100931.10;1710367;82;21068;-87
2022/06/20 09:10:05;;;;;;;5.20;2.02;;;;;;;18.09;60.01;100934.65;1719593;82;21051;-85
2022/06/20 09:13:23;;;;;;;10.20;2.47;;;;;;;18.14;60.21;100950.18;1714854;82;21041;-85
2022/06/20 09:16:04;;;;;;;10.20;2.65;;;;;;;18.15;60.28;100946.61;1730703;82;21274;-91
2022/06/20 09:19:11;;;;;;;10.23;2.52;;;;;;;18.16;60.68;100943.06;1725564;82;21775;-90
2022/06/20 09:21:55;;;;;;;9.28;2.47;;;;;;;18.11;60.81;100931.08;1740059;82;21094;-85
2022/06/20 09:24:39;;;;;;;5.83;1.82;;;;;;;18.10;61.04;100923.11;1716933;82;21080;-92
2022/06/20 09:27:17;;;;;;;8.95;2.80;;;;;;;18.07;61.32;100904.02;1718664;82;21424;-90
2022/06/20 09:30:05;;;;;;;7.17;2.35;;;;;;;18.05;61.57;100880.03;1729576;82;21667;-85
2022/06/20 09:32:49;;;;;;;12.00;2.47;;;;;;;18.13;61.99;100873.80;1709420;83;22622;-91
2022/06/20 09:36:14;;;;;;;14.03;3.25;;;;;;;18.26;62.07;100855.11;1721360;82;21126;-91
2022/06/20 09:39:22;;;;;;;11.30;3.62;;;;;;;18.40;62.38;100838.16;1739224;82;21073;-92
2022/06/20 09:42:01;;;;;;;11.20;2.33;;;;;;;18.54;62.36;100814.94;1672042;85;21092;-92
2022/06/20 09:44:48;;;;;;;7.92;2.27;;;;;;;18.52;62.24;100806.08;1649293;86;21633;-91
2022/06/20 09:47:35;;;;;;;9.90;2.77;;;;;;;18.42;62.29;100795.93;1723159;82;21958;-92
2022/06/20 09:50:27;;;;;;;7.70;3.20;;;;;;;18.31;62.11;100791.57;1711830;82;21090;-91
2022/06/20 09:53:08;;;;;;;10.08;2.30;;;;;;;18.17;62.56;100778.31;1727991;82;21400;-91
2022/06/20 09:56:06;;;;;;;8.68;2.80;;;;;;;18.05;62.47;100744.65;1736574;82;21627;-91
2022/06/20 09:59:07;;;;;;;8.60;2.60;;;;;;;17.85;62.47;100676.88;1713453;82;21495;-91
2022/06/20 10:02:18;;;;;;;9.73;2.77;;;;;;;17.45;62.52;100618.04;1721176;83;21815;-85
2022/06/20 10:05:42;;;;;;;14.65;3.20;;;;;;;17.18;63.03;100596.47;1662261;85;21123;-86
2022/06/20 10:08:31;;;;;;;12.80;3.10;;;;;;;16.93;63.17;100614.30;1658408;85;21250;-85
2022/06/20 10:11:20;;;;;;;11.40;2.77;;;;;;;16.79;63.86;100657.28;1722526;82;21087;-91
2022/06/20 10:14:15;;;;;;;7.83;3.05;;;;;;;16.74;64.21;100659.92;1741835;82;21591;-85
2022/06/20 10:17:15;;;;;;;10.40;2.67;;;;;;;16.76;64.60;100658.18;1716273;83;22584;-90
2022/06/20 10:19:53;;;;;;;8.38;2.62;;;;;;;16.76;64.79;100671.89;1720202;82;21012;-91
2022/06/20 10:22:43;;;;;;;14.07;3.47;;;;;;;16.70;64.84;100679.02;1732953;82;21591;-90
2022/06/20 10:25:31;;;;;;;11.33;3.25;;;;;;;16.66;64.91;100675.89;1680541;84;21597;-85
2022/06/20 10:28:23;;;;;;;9.80;3.35;;;;;;;16.62;65.19;100690.07;1645074;86;21766;-88
2022/06/20 10:31:10;;;;;;;10.23;3.42;;;;;;;16.66;65.73;100711.77;1647541;85;21244;-86
2022/06/20 10:33:51;;;;;;;9.88;3.58;;;;;;;16.79;65.98;100727.72;1718623;82;21051;-89
2022/06/20 10:36:22;;;;;;;10.08;3.55;;;;;;;16.88;65.78;100730.41;1713480;82;21114;-91
2022/06/20 10:39:12;;;;;;;11.43;4.67;;;;;;;16.94;65.93;100738.36;1701026;82;21099;-92
2022/06/20 10:41:57;;;;;;;10.50;3.05;;;;;;;17.00;65.77;100742.78;1721661;82;21651;-85
2022/06/20 10:44:51;;;;;;;10.68;3.33;;;;;;;17.02;65.60;100739.68;1686012;84;21948;-91
2022/06/20 10:47:22;;;;;;;8.60;3.45;;;;;;;17.08;65.65;100743.23;1659775;85;21140;-85
2022/06/20 10:50:12;;;;;;;10.65;3.05;;;;;;;17.21;65.77;100761.80;1672580;85;21135;-93
2022/06/20 10:53:24;;;;;;;9.43;3.20;;;;;;;17.32;65.72;100761.33;1651416;86;21115;-90
2022/06/20 10:56:26;;;;;;;8.05;3.25;;;;;;;17.47;65.69;100767.97;1714631;82;21636;-84
2022/06/20 10:59:23;;;;;;;9.40;2.90;;;;;;;17.62;65.73;100758.13;1709748;82;21754;-84
2022/06/20 11:01:56;;;;;;;8.23;2.75;;;;;;;17.72;65.67;100756.31;1687493;84;21181;-91
2022/06/20 11:05:09;;;;;;;11.43;3.27;;;;;;;17.89;65.49;100742.53;1708416;83;21844;-90
2022/06/20 11:08:26;;;;;;;10.82;3.10;;;;;;;17.99;65.20;100742.91;1709215;83;21043;-85
2022/06/20 11:11:22;;;;;;;9.68;2.87;;;;;;;18.04;64.75;100745.11;1709691;83;21134;-90
2022/06/20 11:14:24;;;;;;;10.53;3.45;;;;;;;18.00;63.91;100737.12;1709319;82;21918;-84
2022/06/20 11:17:17;;;;;;;8.75;2.70;;;;;;;17.81;63.95;100736.31;1720394;81;21086;-86
2022/06/20 11:20:42;;;;;;;10.28;3.00;;;;;;;17.81;64.05;100724.33;1722049;82;21175;-86
2022/06/20 11:23:26;;;;;;;10.78;3.08;;;;;;;17.87;63.97;100725.23;1707632;82;21087;-84
2022/06/20 11:26:12;;;;;;;5.50;2.10;;;;;;;18.06;63.99;100735.33;1728050;82;21043;-90
2022/06/20 11:29:21;;;;;;;8.85;2.60;;;;;;;18.22;64.21;100731.22;1724977;82;21802;-87
2022/06/20 11:32:05;;;;;;;10.00;2.80;;;;;;;18.41;63.73;100742.63;1727046;81;21029;-92
2022/06/20 11:34:57;;;;;;;6.37;2.35;;;;;;;18.41;63.18;100715.98;1728685;82;21105;-85
2022/06/20 11:37:39;;;;;;;10.40;2.77;;;;;;;18.51;62.89;100708.36;1738321;82;21106;-91
2022/06/20 11:40:27;;;;;;;7.75;2.72;;;;;;;18.71;62.92;100705.50;1699613;83;21135;-91
2022/06/20 11:43:17;;;;;;;10.53;2.98;;;;;;;19.00;63.08;100709.72;1678295;84;23074;-90
2022/06/20 11:46:09;;;;;;;8.63;3.20;;;;;;;19.18;62.60;100700.19;1666863;83;21043;-87
2022/06/20 11:48:59;;;;;;;6.90;2.55;;;;;;;19.32;62.30;100695.14;1646517;85;21075;-86
2022/06/20 11:51:54;;;;;;;6.95;2.45;;;;;;;19.35;62.10;100685.31;1666934;85;21089;-92
2022/06/20 11:55:05;;;;;;;10.40;2.95;;;;;;;19.39;61.57;100668.81;1651887;85;21095;-86
2022/06/20 11:57:53;;;;;;;8.33;2.42;;;;;;;19.53;61.38;100657.48;1670141;85;22580;-85
2022/06/20 12:00:28;;;;;;;5.55;2.33;;;;;;;19.69;60.87;100650.59;1697549;84;21107;-91
2022/06/20 12:03:09;;;;;;;6.85;2.30;;;;;;;20.03;60.80;100639.44;1706526;83;21062;-86
2022/06/20 12:05:50;;;;;;;10.18;2.25;;;;;;;20.25;60.03;100626.15;1713641;83;21090;-86
2022/06/20 12:08:54;;;;;;;7.47;2.55;;;;;;;20.35;59.49;100629.11;1650060;86;21184;-92
2022/06/20 12:11:31;;;;;;;9.93;3.20;;;;;;;20.30;58.83;100610.05;1599651;88;21860;-92
2022/06/20 12:17:50;;;;;;;8.48;2.42;;;;;;;20.45;58.82;100607.09;1687144;84;21096;-93
2022/06/20 12:23:29;;;;;;;5.87;2.30;;;;;;;20.73;58.39;100636.92;1713367;83;21051;-86
2022/06/20 12:26:03;;;;;;;8.43;2.20;;;;;;;20.99;57.52;100630.20;1701380;83;22594;-86
2022/06/20 12:28:39;;;;;;;7.92;2.33;;;;;;;21.00;57.64;100640.44;1709832;83;21102;-92
2022/06/20 12:31:36;;;;;;;9.60;2.62;;;;;;;21.08;57.20;100643.86;1690560;83;21121;-92
2022/06/20 12:34:38;;;;;;;9.65;2.30;;;;;;;21.14;56.76;100617.83;1692213;83;21155;-87
2022/06/20 12:37:31;;;;;;;6.55;2.30;;;;;;;21.06;56.67;100646.56;1707946;83;21099;-92
2022/06/20 12:40:44;;;;;;;7.20;2.67;;;;;;;21.06;56.67;100646.56;1687902;84;21790;-92